Time;durP1;ratioP1;P1;durP2;ratioP2;P2;SDS_P1;SDS_P2;PMS_P1;PMS_P2;Temp;Humidity;BMP_temperature;BMP_pressure;BME280_temperature;BME280_humidity;BME280_pressure;Samples;Min_cycle;Max_cycle;Signal;HPM_P1;HPM_P2
2022/07/29 00:07:47;;;;;;;3.00;2.30;;;;;;;16.41;51.48;98960.74;433858;1267;108902;-41
2022/07/29 00:17:54;;;;;;;8.50;2.90;;;;;;;16.30;51.70;98966.61;433777;1269;109113;-42
2022/07/29 00:28:01;;;;;;;6.40;3.20;;;;;;;16.33;52.04;98967.59;433682;1268;97315;-40
2022/07/29 00:38:08;;;;;;;5.00;2.70;;;;;;;16.17;52.19;98962.48;433714;1267;110756;-40
2022/07/29 00:48:16;;;;;;;10.30;3.40;;;;;;;16.09;52.48;98963.65;433843;1268;108908;-40
2022/07/29 00:58:23;;;;;;;3.40;3.00;;;;;;;16.13;52.72;98960.86;433978;1268;97589;-41
2022/07/29 01:08:32;;;;;;;6.60;2.60;;;;;;;16.07;52.94;98955.33;434685;1258;97745;-42
2022/07/29 01:18:40;;;;;;;6.40;2.70;;;;;;;15.99;53.16;98947.80;433930;1267;110188;-40
2022/07/29 01:29:06;;;;;;;6.20;2.90;;;;;;;15.93;53.35;98946.00;433965;1268;108771;-41
2022/07/29 01:39:20;;;;;;;8.20;2.70;;;;;;;15.85;53.52;98946.85;433918;1267;109745;-40
2022/07/29 01:49:28;;;;;;;5.80;2.70;;;;;;;15.79;53.88;98940.67;434228;1268;97890;-41
2022/07/29 01:59:38;;;;;;;5.00;2.40;;;;;;;15.70;54.07;98935.23;434073;1268;110795;-40
2022/07/29 02:09:47;;;;;;;5.20;2.60;;;;;;;15.63;54.19;98928.66;433812;1268;109251;-41
2022/07/29 02:19:52;;;;;;;3.80;2.40;;;;;;;15.51;54.51;98914.30;434087;1267;97466;-41
2022/07/29 02:29:58;;;;;;;6.30;2.80;;;;;;;15.45;54.61;98913.15;433642;1267;97468;-42
2022/07/29 02:40:10;;;;;;;9.00;2.90;;;;;;;15.41;54.94;98913.86;434065;1267;109108;-43
2022/07/29 02:50:14;;;;;;;5.50;3.00;;;;;;;15.32;55.17;98918.14;433920;1267;108100;-43
2022/07/29 03:00:24;;;;;;;3.30;2.10;;;;;;;15.31;55.37;98919.73;433944;1268;97888;-41
2022/07/29 03:10:32;;;;;;;7.50;3.50;;;;;;;15.21;55.49;98913.47;434020;1268;108966;-41
2022/07/29 03:20:40;;;;;;;5.40;3.70;;;;;;;15.06;55.92;98908.69;434004;1268;96649;-41
2022/07/29 03:30:48;;;;;;;9.70;3.50;;;;;;;14.97;56.20;98909.08;434105;1266;111093;-41
2022/07/29 03:40:57;;;;;;;6.80;3.80;;;;;;;14.92;56.52;98908.23;434149;1267;108921;-41
2022/07/29 03:51:05;;;;;;;8.50;3.30;;;;;;;15.01;56.77;98918.39;434359;1267;97921;-41
2022/07/29 04:01:12;;;;;;;5.60;3.20;;;;;;;15.76;56.61;98922.73;434057;1267;97884;-42
2022/07/29 04:11:20;;;;;;;5.70;2.40;;;;;;;17.53;55.77;98927.31;433792;1268;111103;-42
2022/07/29 04:21:28;;;;;;;4.30;3.10;;;;;;;19.25;54.00;98919.36;434116;1268;108609;-41
2022/07/29 04:31:35;;;;;;;15.50;3.30;;;;;;;20.16;52.45;98922.56;434019;1268;108836;-42
2022/07/29 04:41:43;;;;;;;5.60;2.60;;;;;;;20.93;51.09;98916.66;434220;1267;97946;-40
2022/07/29 04:51:52;;;;;;;7.60;2.80;;;;;;;21.46;49.89;98916.53;434054;1268;110244;-40
2022/07/29 05:01:59;;;;;;;6.80;2.20;;;;;;;21.05;49.49;98914.60;434022;1267;108871;-40
2022/07/29 05:12:04;;;;;;;9.60;2.40;;;;;;;21.02;48.79;98907.86;433876;1268;108890;-40
2022/07/29 05:22:12;;;;;;;5.20;2.30;;;;;;;21.00;48.46;98903.11;434004;1267;97480;-40
2022/07/29 05:32:19;;;;;;;3.80;1.70;;;;;;;21.35;47.87;98902.41;433640;1268;325319;-42
2022/07/29 05:42:27;;;;;;;7.00;2.20;;;;;;;21.35;47.45;98909.50;433865;1268;108868;-40
2022/07/29 05:52:34;;;;;;;6.10;2.50;;;;;;;21.29;47.14;98910.83;433119;1268;98200;-41
2022/07/29 06:02:41;;;;;;;4.00;2.00;;;;;;;21.82;47.09;98895.86;432628;1268;96669;-41
2022/07/29 06:12:48;;;;;;;4.20;1.60;;;;;;;22.20;46.00;98898.08;432325;1266;110233;-42
2022/07/29 06:22:56;;;;;;;6.40;1.70;;;;;;;22.30;45.50;98892.40;432394;1267;108747;-41
2022/07/29 06:33:04;;;;;;;5.60;2.10;;;;;;;22.31;45.03;98891.55;433120;1266;97766;-41
2022/07/29 06:43:11;;;;;;;4.40;1.60;;;;;;;22.27;44.59;98895.89;434028;1266;97887;-41
2022/07/29 06:53:18;;;;;;;3.60;1.60;;;;;;;22.35;44.19;98903.00;434033;1268;111075;-41
2022/07/29 07:03:26;;;;;;;5.40;1.50;;;;;;;22.87;43.92;98910.57;433973;1267;109789;-40
2022/07/29 07:23:38;;;;;;;2.60;1.50;;;;;;;22.46;43.57;98908.48;434060;1267;97862;-40
2022/07/29 07:33:45;;;;;;;9.00;2.10;;;;;;;22.73;44.01;98908.69;434026;1268;108810;-42
2022/07/29 07:43:52;;;;;;;5.60;2.60;;;;;;;23.25;43.12;98912.04;433949;1266;108957;-39
2022/07/29 07:54:00;;;;;;;7.00;1.50;;;;;;;23.46;43.06;98904.73;434142;1268;97896;-41
2022/07/29 08:14:14;;;;;;;3.40;1.60;;;;;;;24.11;42.44;98899.61;434024;1268;107007;-40
2022/07/29 08:34:46;;;;;;;5.40;1.80;;;;;;;24.39;42.73;98884.65;434244;1267;97984;-40
2022/07/29 08:55:01;;;;;;;4.20;1.80;;;;;;;24.94;41.61;98891.33;434112;1268;109238;-41
2022/07/29 09:05:10;;;;;;;2.40;1.80;;;;;;;24.63;41.59;98884.65;433894;1268;109662;-42
2022/07/29 09:15:18;;;;;;;5.20;1.70;;;;;;;24.23;42.19;98873.86;433756;1268;97874;-41
2022/07/29 09:25:39;;;;;;;8.40;1.80;;;;;;;24.63;42.87;98872.63;434179;1267;111462;-41
2022/07/29 09:35:47;;;;;;;5.60;2.00;;;;;;;25.06;42.07;98881.25;434323;1268;107970;-41
2022/07/29 09:46:11;;;;;;;4.40;2.20;;;;;;;25.04;41.82;98879.84;433968;1267;97902;-41
2022/07/29 09:56:19;;;;;;;2.50;2.20;;;;;;;25.01;41.99;98856.45;434199;1268;110989;-41
2022/07/29 10:06:26;;;;;;;3.10;2.20;;;;;;;25.07;42.02;98847.73;434166;1267;109217;-41
2022/07/29 10:16:34;;;;;;;2.70;2.20;;;;;;;25.11;41.75;98846.25;434231;1268;108829;-41
2022/07/29 10:26:41;;;;;;;4.30;2.30;;;;;;;24.71;42.21;98838.42;434036;1268;97808;-40
2022/07/29 10:36:47;;;;;;;4.70;2.40;;;;;;;24.57;42.56;98833.16;433780;1266;111120;-42
2022/07/29 10:46:55;;;;;;;3.30;2.80;;;;;;;24.76;42.78;98836.67;433954;1265;97945;-40
2022/07/29 10:57:15;;;;;;;4.00;2.00;;;;;;;25.10;42.54;98829.23;433918;1268;97926;-40
2022/07/29 11:07:22;;;;;;;4.80;2.40;;;;;;;25.15;42.37;98822.02;434323;1267;96616;-40
2022/07/29 11:17:30;;;;;;;3.40;2.50;;;;;;;25.10;42.30;98815.61;434177;1268;109714;-41
2022/07/29 11:28:14;;;;;;;5.00;2.40;;;;;;;25.42;42.57;98816.79;434205;1268;109835;-41
2022/07/29 11:38:27;;;;;;;3.00;2.50;;;;;;;25.67;42.04;98818.23;434087;1268;97878;-40
2022/07/29 11:48:37;;;;;;;5.40;2.80;;;;;;;25.68;41.61;98813.11;434257;1267;96655;-40
2022/07/29 11:58:45;;;;;;;5.30;2.40;;;;;;;25.59;41.82;98822.06;434066;1268;111040;-40
2022/07/29 12:08:53;;;;;;;4.40;2.90;;;;;;;25.16;41.78;98820.98;434387;1268;107496;-39
2022/07/29 12:18:58;;;;;;;3.60;2.60;;;;;;;24.83;42.64;98829.87;434079;1267;97204;-39
2022/07/29 12:29:06;;;;;;;15.80;3.00;;;;;;;24.56;42.95;98832.42;434090;1267;98147;-39
2022/07/29 12:49:33;;;;;;;8.10;3.30;;;;;;;24.17;43.54;98800.19;433937;1268;108613;-39
2022/07/29 12:59:44;;;;;;;8.30;3.60;;;;;;;24.12;44.19;98771.25;434072;1268;108776;-39
2022/07/29 13:09:51;;;;;;;5.80;3.00;;;;;;;24.23;44.67;98746.59;434321;1268;97479;-40
2022/07/29 13:20:12;;;;;;;7.40;2.90;;;;;;;24.45;44.49;98766.20;434142;1268;111079;-40
2022/07/29 13:30:19;;;;;;;6.20;3.60;;;;;;;24.54;44.72;98758.95;433588;1267;108994;-41
2022/07/29 13:40:25;;;;;;;8.70;3.60;;;;;;;24.64;44.82;98747.61;434046;1268;98657;-41
2022/07/29 13:50:33;;;;;;;7.10;3.30;;;;;;;24.73;44.95;98725.35;434046;1268;97750;-42
2022/07/29 14:00:41;;;;;;;6.20;3.10;;;;;;;24.94;45.13;98716.01;433909;1268;111493;-39
2022/07/29 14:10:49;;;;;;;4.10;3.40;;;;;;;25.07;44.65;98713.86;433872;1267;108876;-39
2022/07/29 14:20:57;;;;;;;6.50;3.80;;;;;;;24.99;44.42;98721.59;434146;1268;97600;-40
2022/07/29 14:31:04;;;;;;;4.80;3.80;;;;;;;24.82;44.17;98724.64;433779;1268;110228;-40
2022/07/29 14:41:11;;;;;;;5.90;3.70;;;;;;;24.62;44.65;98722.65;433871;1267;107689;-40
2022/07/29 14:51:19;;;;;;;4.50;4.10;;;;;;;24.52;44.83;98711.06;433940;1266;97900;-40
2022/07/29 15:11:31;;;;;;;7.30;3.60;;;;;;;24.13;45.51;98641.36;433620;1267;108939;-42
2022/07/29 15:21:44;;;;;;;5.00;4.30;;;;;;;24.03;45.40;98632.81;432715;1268;108323;-40
2022/07/29 15:31:55;;;;;;;10.40;4.80;;;;;;;24.01;45.63;98643.61;433983;1267;97923;-41
2022/07/29 15:42:03;;;;;;;6.30;4.60;;;;;;;24.04;45.84;98662.27;433840;1268;109776;-40
2022/07/29 15:52:11;;;;;;;10.30;4.40;;;;;;;24.02;45.94;98673.91;433839;1267;108918;-40
2022/07/29 16:02:19;;;;;;;6.90;4.00;;;;;;;24.00;46.03;98689.53;434237;1268;97879;-40
2022/07/29 16:12:25;;;;;;;9.90;3.80;;;;;;;23.96;46.11;98697.70;434042;1268;97932;-40
2022/07/29 16:22:33;;;;;;;8.00;4.80;;;;;;;23.73;46.46;98698.40;433690;1268;111242;-40
2022/07/29 16:32:41;;;;;;;6.00;5.30;;;;;;;23.01;48.72;98689.64;433733;1268;108896;-40
2022/07/29 16:42:48;;;;;;;7.30;4.70;;;;;;;22.18;50.47;98685.13;433827;1268;97502;-40
2022/07/29 16:52:56;;;;;;;12.30;6.70;;;;;;;21.79;51.60;98676.38;433941;1267;110949;-40
2022/07/29 17:03:04;;;;;;;8.20;7.20;;;;;;;21.76;53.31;98677.55;433900;1268;108884;-40
2022/07/29 17:13:12;;;;;;;10.10;7.10;;;;;;;21.68;55.22;98675.03;434505;1268;108192;-40
2022/07/29 17:23:19;;;;;;;9.70;6.90;;;;;;;21.29;56.47;98680.66;434009;1268;97905;-40
2022/07/29 17:33:26;;;;;;;9.10;6.90;;;;;;;20.95;57.89;98680.52;433900;1268;351146;-40
2022/07/29 17:43:33;;;;;;;12.00;7.40;;;;;;;20.86;59.42;98686.70;433845;1268;97887;-42
2022/07/29 17:53:41;;;;;;;13.90;7.50;;;;;;;20.72;60.69;98692.61;433786;1268;111025;-41
2022/07/29 18:03:48;;;;;;;13.70;8.40;;;;;;;20.75;61.73;98691.55;434259;1268;108275;-41
2022/07/29 18:13:56;;;;;;;8.90;7.80;;;;;;;20.74;62.05;98671.20;433838;1268;97881;-40
2022/07/29 18:24:09;;;;;;;10.70;7.00;;;;;;;20.72;61.17;98658.66;434171;1267;108529;-40
2022/07/29 18:44:23;;;;;;;9.10;5.90;;;;;;;21.00;59.17;98666.39;433993;1268;97879;-40
2022/07/29 18:54:30;;;;;;;6.90;5.30;;;;;;;21.10;58.27;98666.86;433948;1268;110714;-39
2022/07/29 19:04:37;;;;;;;11.10;5.60;;;;;;;21.12;57.68;98672.63;434037;1268;108974;-42
2022/07/29 19:14:45;;;;;;;6.80;4.90;;;;;;;21.19;57.14;98684.60;433927;1268;98147;-41
2022/07/29 19:24:52;;;;;;;6.70;4.90;;;;;;;21.22;56.67;98696.41;433632;1268;97484;-41
2022/07/29 19:55:32;;;;;;;8.60;5.80;;;;;;;21.00;56.07;98687.83;434062;1268;108630;-41
2022/07/29 20:05:39;;;;;;;7.40;5.50;;;;;;;20.92;56.13;98680.04;433907;1268;97521;-41
2022/07/29 20:15:54;;;;;;;9.90;5.30;;;;;;;20.81;56.18;98673.55;433894;1267;111162;-41
2022/07/29 20:26:02;;;;;;;8.80;5.50;;;;;;;20.69;56.32;98671.07;433989;1268;108890;-42
2022/07/29 20:36:14;;;;;;;8.30;4.80;;;;;;;20.59;56.49;98668.45;434199;1267;108923;-41
2022/07/29 20:46:21;;;;;;;8.10;4.60;;;;;;;20.47;56.94;98676.65;434134;1267;98592;-41
2022/07/29 20:56:29;;;;;;;7.10;5.60;;;;;;;20.38;56.81;98678.44;434172;1268;110142;-40
2022/07/29 21:06:36;;;;;;;6.90;4.50;;;;;;;20.30;57.03;98665.77;434047;1267;108923;-40
2022/07/29 21:16:44;;;;;;;7.70;4.80;;;;;;;20.18;57.40;98658.15;433770;1268;108815;-40
2022/07/29 21:28:25;;;;;;;7.90;4.30;;;;;;;20.14;57.36;98657.35;434047;1268;97876;-42
2022/07/29 21:37:27;;;;;;;6.70;3.80;;;;;;;20.09;57.51;98654.67;433964;1268;111095;-40
2022/07/29 21:47:34;;;;;;;5.40;4.10;;;;;;;20.07;57.48;98647.20;433883;1268;109491;-40
2022/07/29 21:57:41;;;;;;;6.70;4.80;;;;;;;19.99;57.42;98634.06;433625;1268;98010;-41
2022/07/29 22:07:49;;;;;;;8.20;3.80;;;;;;;19.91;57.98;98637.58;433878;1268;111208;-40
2022/07/29 22:18:03;;;;;;;4.70;4.00;;;;;;;19.81;57.93;98647.41;433573;1267;108851;-40
2022/07/29 22:28:09;;;;;;;11.20;4.80;;;;;;;19.72;58.06;98627.04;433943;1267;97874;-40
2022/07/29 22:38:17;;;;;;;7.10;4.40;;;;;;;19.64;58.31;98616.09;433824;1267;110830;-39
2022/07/29 22:48:23;;;;;;;5.60;5.00;;;;;;;19.57;58.84;98611.83;433883;1268;107905;-40
2022/07/29 22:58:30;;;;;;;8.70;4.60;;;;;;;19.49;59.06;98602.26;433615;1267;97465;-40
2022/07/29 23:08:38;;;;;;;7.20;5.00;;;;;;;19.45;59.15;98598.20;433737;1267;111099;-40
2022/07/29 23:18:45;;;;;;;5.50;4.50;;;;;;;19.44;59.17;98597.73;434031;1267;109680;-40
2022/07/29 23:28:53;;;;;;;5.70;5.00;;;;;;;19.47;59.68;98586.79;433939;1267;97855;-40
2022/07/29 23:39:00;;;;;;;9.10;6.10;;;;;;;19.44;59.70;98570.15;434049;1267;110994;-40
2022/07/29 23:49:07;;;;;;;8.40;5.50;;;;;;;19.31;59.91;98556.16;433907;1267;107868;-40
2022/07/29 23:59:14;;;;;;;5.30;4.70;;;;;;;19.14;60.66;98543.35;433941;1266;96601;-40
